Accueil
METAR-TAF:

METAR-TAF

Aéroports :

Kuala Terengganu, Malaisie

latitude: 05-22-53N, longitude: 103-06-17E, altitude: 6 m

Observation

Le bulletin a été fait il y a 39 minutes, à 03:00 UTC
Vent 5 kt de sud, variant entre sud-est et sud/sud-ouest
Température 28°C
Humidité 84%
Pression 1008 hPa
Visibilité 10 km ou plus
Quelques nuages à une hauteur de 2000 ft

METAR: WMKN 220300Z 17005KT 130V200 9999 FEW020 28/25 Q1008

Heure: 11:39 (03:39 UTC)

Prévision

Le bulletin a été fait il y a 4 heures et 39 minutes, à 23:00 UTC
Prévision valable du 22 à 00 UTC au 23 à 00 UTC
Vent 10 kt de sud
Visibilité 10 km ou plus
Quelques nuages à une hauteur de 2200 ft

TAF: WMKN 212300Z 2200/2300 17010KT 9999 FEW022

Observations et prévisions météorologiques de plus de 4000 aéroports (messages METAR et TAF).

Les stations disponibles sont représentées par des disques jaunes et rouges sur la carte.

Passer la souris dessus pour voir le nom de la station.

Cliquer dessus pour voir les observations et prévisions météorologiques.

Pour changer de carte: cliquez sur les boutons verts avec une croix noire pour zoomer, sur le bouton vert avec un tiret pour effectuer un zoom arrière, ou sur les flèches vertes pour les cartes adjacentes.


METAR-TAF: